createdAt,value
2019-06-08T00:04:45.069Z,21.54
2019-06-08T00:10:10.729Z,21.52
2019-06-08T00:15:35.592Z,21.51
2019-06-08T00:20:59.282Z,21.48
2019-06-08T00:26:24.411Z,21.41
2019-06-08T00:31:49.059Z,21.31
2019-06-08T00:37:13.061Z,21.31
2019-06-08T00:42:37.907Z,21.22
2019-06-08T00:48:05.024Z,21.11
2019-06-08T00:53:29.715Z,21.19
2019-06-08T00:58:53.763Z,21.02
2019-06-08T01:04:27.138Z,21.20
2019-06-08T01:09:51.222Z,21.19
2019-06-08T01:15:16.596Z,21.12
2019-06-08T01:20:41.336Z,21.32
2019-06-08T01:26:05.704Z,21.34
2019-06-08T01:31:30.572Z,21.18
2019-06-08T01:36:54.387Z,21.40
2019-06-08T01:42:19.025Z,21.34
2019-06-08T01:47:42.782Z,21.49
2019-06-08T01:53:06.730Z,21.73
2019-06-08T01:58:31.618Z,21.72
2019-06-08T02:03:56.012Z,21.94
2019-06-08T02:09:20.606Z,21.63
2019-06-08T02:14:45.342Z,21.50
2019-06-08T02:20:11.872Z,21.41
2019-06-08T02:25:35.854Z,21.31
2019-06-08T02:30:59.677Z,21.23
2019-06-08T02:36:24.296Z,21.18
2019-06-08T02:41:49.052Z,21.16
2019-06-08T02:47:16.312Z,21.05
2019-06-08T02:52:40.895Z,20.97
2019-06-08T02:58:06.275Z,20.81
2019-06-08T03:03:35.778Z,20.64
2019-06-08T03:09:01.769Z,20.52
2019-06-08T03:14:28.011Z,20.68
2019-06-08T03:19:52.405Z,20.61
2019-06-08T03:25:16.910Z,20.76
2019-06-08T03:30:47.405Z,20.56
2019-06-08T03:36:06.994Z,20.32
2019-06-08T03:41:31.453Z,20.22
2019-06-08T03:46:55.075Z,20.19
2019-06-08T03:52:18.966Z,20.09
2019-06-08T03:57:44.083Z,19.92
2019-06-08T04:03:09.132Z,19.67
2019-06-08T04:08:32.995Z,19.58
2019-06-08T04:13:56.827Z,19.64
2019-06-08T04:19:21.379Z,19.36
2019-06-08T04:24:46.643Z,19.60
2019-06-08T04:30:12.170Z,19.44
2019-06-08T04:35:35.812Z,19.45
2019-06-08T04:41:00.877Z,19.57
2019-06-08T04:46:27.977Z,19.31
2019-06-08T04:51:52.690Z,19.28
2019-06-08T04:57:21.689Z,19.25
2019-06-08T05:02:48.859Z,19.61
2019-06-08T05:08:12.584Z,19.53
2019-06-08T05:13:36.811Z,19.88
2019-06-08T05:19:01.297Z,19.83
2019-06-08T05:24:27.016Z,20.21
2019-06-08T05:29:50.873Z,20.15
2019-06-08T05:35:14.782Z,20.42
2019-06-08T05:40:39.636Z,21.34
2019-06-08T05:46:04.069Z,22.62
2019-06-08T05:51:28.888Z,22.27
2019-06-08T05:56:53.131Z,22.90
2019-06-08T06:02:17.275Z,22.87
2019-06-08T06:07:42.660Z,22.69
2019-06-08T06:13:07.240Z,22.87
2019-06-08T06:18:31.670Z,22.57
2019-06-08T06:23:55.334Z,23.07
2019-06-08T06:29:20.255Z,24.08
2019-06-08T06:34:45.799Z,24.90
2019-06-08T06:40:10.237Z,23.53
2019-06-08T06:45:34.982Z,23.15
2019-06-08T06:50:59.866Z,22.67
2019-06-08T06:56:23.464Z,23.58
2019-06-08T07:01:53.674Z,25.08
2019-06-08T07:07:15.427Z,25.50
2019-06-08T07:12:39.466Z,25.04
2019-06-08T07:18:04.798Z,25.04
2019-06-08T07:23:29.510Z,24.07
2019-06-08T07:28:55.388Z,23.26
2019-06-08T07:34:20.444Z,23.10
2019-06-08T07:39:44.849Z,22.65
2019-06-08T07:45:09.750Z,22.40
2019-06-08T07:50:34.254Z,22.01
2019-06-08T07:55:58.077Z,21.40
2019-06-08T08:01:35.681Z,21.53
2019-06-08T08:06:50.332Z,21.27
2019-06-08T08:12:15.347Z,21.25
2019-06-08T08:17:39.729Z,21.50
2019-06-08T08:23:06.947Z,21.77
2019-06-08T08:28:30.834Z,21.49
2019-06-08T08:33:55.927Z,21.40
2019-06-08T08:39:21.059Z,20.96
2019-06-08T08:44:45.024Z,21.19
2019-06-08T08:50:09.977Z,21.19
2019-06-08T08:55:34.708Z,21.63
2019-06-08T09:01:01.556Z,22.12
2019-06-08T09:06:24.820Z,21.45
2019-06-08T09:11:49.544Z,21.46
2019-06-08T09:17:13.605Z,21.49
2019-06-08T09:22:52.584Z,21.06
2019-06-08T09:28:04.907Z,21.52
2019-06-08T09:33:30.047Z,21.14
2019-06-08T09:38:55.991Z,21.39
2019-06-08T09:44:19.409Z,21.50
2019-06-08T09:49:44.134Z,21.85
2019-06-08T09:55:09.293Z,21.87
2019-06-08T10:00:33.780Z,22.21
2019-06-08T10:06:01.493Z,21.93
2019-06-08T10:11:23.181Z,21.23
2019-06-08T10:16:47.764Z,21.81
2019-06-08T10:22:11.541Z,21.60
2019-06-08T10:27:38.593Z,21.73
2019-06-08T10:33:05.196Z,22.30
2019-06-08T10:38:29.329Z,21.83
2019-06-08T10:43:54.027Z,21.13
2019-06-08T10:49:18.866Z,21.72
2019-06-08T10:54:43.808Z,22.12
2019-06-08T11:00:18.013Z,22.26
2019-06-08T11:05:34.506Z,23.24
2019-06-08T11:11:00.009Z,25.50
2019-06-08T11:16:24.111Z,25.50
2019-06-08T11:21:48.950Z,23.49
2019-06-08T11:27:13.356Z,24.08
2019-06-08T11:32:38.483Z,24.13
2019-06-08T11:38:03.868Z,25.34
2019-06-08T11:43:28.741Z,25.30
2019-06-08T11:48:53.921Z,25.76
2019-06-08T11:54:32.829Z,24.94
2019-06-08T11:59:44.711Z,25.76
2019-06-08T12:05:12.665Z,25.43
2019-06-08T12:10:35.130Z,24.77
2019-06-08T12:15:59.931Z,24.32
2019-06-08T12:21:24.489Z,24.12
2019-06-08T12:26:52.731Z,23.93
2019-06-08T12:32:16.270Z,24.26
2019-06-08T12:37:40.025Z,24.28
2019-06-08T12:43:04.848Z,24.76
2019-06-08T12:48:29.396Z,25.79
2019-06-08T12:53:54.120Z,27.56
2019-06-08T12:59:22.521Z,26.70
2019-06-08T13:04:44.495Z,27.20
2019-06-08T13:10:09.223Z,26.57
2019-06-08T13:15:33.011Z,28.53
2019-06-08T13:21:00.412Z,26.85
2019-06-08T13:26:27.858Z,27.33
2019-06-08T13:31:48.779Z,26.70
2019-06-08T13:37:57.617Z,26.39
2019-06-08T13:43:22.766Z,28.10
2019-06-08T13:48:48.202Z,27.33
2019-06-08T13:54:12.778Z,27.89
2019-06-08T13:59:39.011Z,27.62
2019-06-08T14:05:04.107Z,28.24
2019-06-08T14:10:38.545Z,28.07
2019-06-08T14:16:03.267Z,28.70
2019-06-08T14:21:34.163Z,27.51
2019-06-08T14:26:54.336Z,28.52
2019-06-08T14:32:20.416Z,28.11
2019-06-08T14:37:44.531Z,27.37
2019-06-08T14:43:10.777Z,26.60
2019-06-08T14:48:34.661Z,27.56
2019-06-08T14:53:59.285Z,28.11
2019-06-08T14:59:23.876Z,27.43
2019-06-08T15:04:48.832Z,27.67
2019-06-08T15:10:13.631Z,28.24
2019-06-08T15:15:38.401Z,28.15
2019-06-08T15:21:02.881Z,26.97
2019-06-08T15:26:36.464Z,26.96
2019-06-08T15:31:53.459Z,27.19
2019-06-08T15:37:18.557Z,26.71
2019-06-08T15:42:43.566Z,27.56
2019-06-08T15:48:08.233Z,27.27
2019-06-08T15:53:34.075Z,26.50
2019-06-08T15:58:58.926Z,26.86
2019-06-08T16:04:23.830Z,26.39
2019-06-08T16:09:52.558Z,27.33
2019-06-08T16:15:17.206Z,25.66
2019-06-08T16:20:41.821Z,26.10
2019-06-08T16:26:06.275Z,26.22
2019-06-08T16:31:31.099Z,26.01
2019-06-08T16:36:54.938Z,26.15
2019-06-08T16:42:19.781Z,25.37
2019-06-08T16:47:44.456Z,26.17
2019-06-08T16:53:09.190Z,25.59
2019-06-08T16:58:34.267Z,25.78
2019-06-08T17:03:58.808Z,25.02
2019-06-08T17:09:22.473Z,24.37
2019-06-08T17:14:46.181Z,25.46
2019-06-08T17:20:11.363Z,25.33
2019-06-08T17:25:36.623Z,23.74
2019-06-08T17:31:00.200Z,24.99
2019-06-08T17:36:24.941Z,24.54
2019-06-08T17:41:49.356Z,24.41
2019-06-08T17:47:14.149Z,24.31
2019-06-08T17:52:39.061Z,24.04
2019-06-08T17:58:03.248Z,24.53
2019-06-08T18:03:28.037Z,24.53
2019-06-08T18:08:51.862Z,23.65
2019-06-08T18:14:18.059Z,23.20
2019-06-08T18:19:45.973Z,22.90
2019-06-08T18:25:07.851Z,22.57
2019-06-08T18:30:32.287Z,22.02
2019-06-08T18:35:57.678Z,22.24
2019-06-08T18:41:22.341Z,22.16
2019-06-08T18:46:48.264Z,21.92
2019-06-08T18:52:13.723Z,21.83
2019-06-08T18:57:39.864Z,21.70
2019-06-08T19:03:03.739Z,21.75
2019-06-08T19:08:28.168Z,21.51
2019-06-08T19:13:54.238Z,21.45
2019-06-08T19:19:20.029Z,21.16
2019-06-08T19:24:45.408Z,20.90
2019-06-08T19:30:09.684Z,20.57
2019-06-08T19:35:34.876Z,20.30
2019-06-08T19:40:59.847Z,20.03
2019-06-08T19:46:27.022Z,19.82
2019-06-08T19:51:53.886Z,19.63
2019-06-08T19:57:17.466Z,19.50
2019-06-08T20:02:42.604Z,19.36
2019-06-08T20:08:08.103Z,19.23
2019-06-08T20:13:33.303Z,19.24
2019-06-08T20:18:58.327Z,19.11
2019-06-08T20:24:22.262Z,18.99
2019-06-08T20:29:48.248Z,18.82
2019-06-08T20:35:11.707Z,18.63
2019-06-08T20:40:35.409Z,18.40
2019-06-08T20:46:00.845Z,18.28
2019-06-08T20:51:27.708Z,18.29
2019-06-08T20:56:52.139Z,18.37
2019-06-08T21:02:17.837Z,18.23
2019-06-08T21:07:43.796Z,17.97
2019-06-08T21:13:08.445Z,17.87
2019-06-08T21:18:32.420Z,17.71
2019-06-08T21:24:00.807Z,17.61
2019-06-08T21:29:22.272Z,17.46
2019-06-08T21:34:51.738Z,17.29
2019-06-08T21:40:13.428Z,17.20
2019-06-08T21:45:38.146Z,17.06
2019-06-08T21:51:01.986Z,16.96
2019-06-08T21:56:29.682Z,16.71
2019-06-08T22:01:59.067Z,16.49
2019-06-08T22:07:21.039Z,16.31
2019-06-08T22:12:44.735Z,16.20
2019-06-08T22:18:09.241Z,16.01
2019-06-08T22:23:33.023Z,15.77
2019-06-08T22:28:58.395Z,15.47
2019-06-08T22:34:22.360Z,15.33
2019-06-08T22:39:47.928Z,15.25
2019-06-08T22:45:11.974Z,15.04
2019-06-08T22:50:38.194Z,14.98
2019-06-08T22:56:04.536Z,14.87
2019-06-08T23:01:28.631Z,14.94
2019-06-08T23:06:52.459Z,15.20
2019-06-08T23:12:18.180Z,14.92
2019-06-08T23:17:43.597Z,14.80
2019-06-08T23:23:09.042Z,14.73
2019-06-08T23:28:33.156Z,14.43
2019-06-08T23:34:00.275Z,14.62
2019-06-08T23:39:23.369Z,14.81
2019-06-08T23:44:48.157Z,14.96
2019-06-08T23:50:13.074Z,15.01
2019-06-08T23:55:37.693Z,14.66
